createdAt,value
2022-12-11T00:02:06.512Z,0.80
2022-12-11T00:04:32.977Z,0.79
2022-12-11T00:06:59.391Z,0.82
2022-12-11T00:09:26.090Z,0.84
2022-12-11T00:11:52.674Z,0.84
2022-12-11T00:14:19.276Z,0.88
2022-12-11T00:16:48.063Z,0.84
2022-12-11T00:19:15.146Z,0.87
2022-12-11T00:21:41.477Z,0.88
2022-12-11T00:24:07.858Z,0.86
2022-12-11T00:26:34.172Z,0.85
2022-12-11T00:29:00.534Z,0.86
2022-12-11T00:31:26.990Z,0.84
2022-12-11T00:33:54.676Z,0.93
2022-12-11T00:36:23.651Z,0.98
2022-12-11T00:38:51.179Z,0.93
2022-12-11T00:41:17.990Z,0.96
2022-12-11T00:43:44.772Z,0.98
2022-12-11T00:46:13.167Z,0.92
2022-12-11T00:48:39.603Z,1.01
2022-12-11T00:51:06.407Z,0.99
2022-12-11T00:53:33.007Z,0.95
2022-12-11T00:55:59.431Z,0.99
2022-12-11T00:58:26.072Z,0.99
2022-12-11T01:00:52.407Z,1.05
2022-12-11T01:03:19.078Z,0.99
2022-12-11T01:05:53.712Z,1.05
2022-12-11T01:08:20.658Z,1.05
2022-12-11T01:10:47.472Z,1.00
2022-12-11T01:13:13.994Z,0.94
2022-12-11T01:15:42.819Z,0.93
2022-12-11T01:18:10.734Z,0.95
2022-12-11T01:20:39.292Z,0.94
2022-12-11T01:23:06.101Z,0.93
2022-12-11T01:25:32.905Z,0.96
2022-12-11T01:27:59.541Z,1.00
2022-12-11T01:30:26.095Z,0.99
2022-12-11T01:32:52.920Z,0.95
2022-12-11T01:35:19.802Z,1.02
2022-12-11T01:37:46.399Z,0.99
2022-12-11T01:40:14.912Z,0.97
2022-12-11T01:42:41.550Z,0.92
2022-12-11T01:45:30.737Z,0.97
2022-12-11T01:48:05.379Z,0.93
2022-12-11T01:50:37.320Z,0.99
2022-12-11T01:53:06.919Z,0.99
2022-12-11T01:55:34.458Z,1.00
2022-12-11T01:58:02.643Z,1.04
2022-12-11T02:00:29.321Z,0.96
2022-12-11T02:02:55.678Z,1.03
2022-12-11T02:05:22.023Z,1.06
2022-12-11T02:07:54.465Z,1.11
2022-12-11T02:10:28.947Z,1.08
2022-12-11T02:13:12.272Z,1.07
2022-12-11T02:15:48.319Z,1.08
2022-12-11T02:18:36.565Z,1.11
2022-12-11T02:21:29.112Z,1.11
2022-12-11T02:24:19.078Z,1.12
2022-12-11T02:27:05.855Z,1.11
2022-12-11T02:29:42.442Z,1.13
2022-12-11T02:32:13.866Z,1.10
2022-12-11T02:34:46.987Z,1.11
2022-12-11T02:37:23.166Z,1.12
2022-12-11T02:39:53.902Z,1.16
2022-12-11T02:42:21.658Z,1.27
2022-12-11T02:44:49.477Z,1.23
2022-12-11T02:47:17.852Z,1.23
2022-12-11T02:49:48.235Z,1.21
2022-12-11T02:52:18.755Z,1.19
2022-12-11T02:54:47.080Z,1.26
2022-12-11T02:57:27.880Z,1.24
2022-12-11T02:59:54.512Z,1.32
2022-12-11T03:02:21.261Z,1.29
2022-12-11T03:04:48.353Z,1.34
2022-12-11T03:07:25.977Z,1.34
2022-12-11T03:09:53.192Z,1.37
2022-12-11T03:12:25.212Z,1.37
2022-12-11T03:14:51.704Z,1.37
2022-12-11T03:17:30.526Z,1.40
2022-12-11T03:20:22.319Z,1.39
2022-12-11T03:22:56.845Z,1.41
2022-12-11T03:25:28.246Z,1.36
2022-12-11T03:27:58.696Z,1.34
2022-12-11T03:30:28.380Z,1.38
2022-12-11T03:33:01.108Z,1.35
2022-12-11T03:35:44.142Z,1.37
2022-12-11T03:38:17.676Z,1.37
2022-12-11T03:40:48.950Z,1.37
2022-12-11T03:43:16.242Z,1.42
2022-12-11T03:45:44.693Z,1.44
2022-12-11T03:48:13.380Z,1.44
2022-12-11T03:50:41.491Z,1.41
2022-12-11T03:53:08.605Z,1.40
2022-12-11T03:55:37.832Z,1.41
2022-12-11T03:58:04.511Z,1.35
2022-12-11T04:00:31.551Z,1.42
2022-12-11T04:02:58.079Z,1.45
2022-12-11T04:05:24.403Z,1.50
2022-12-11T04:07:50.842Z,1.45
2022-12-11T04:10:17.302Z,1.41
2022-12-11T04:12:43.817Z,1.41
2022-12-11T04:15:10.834Z,1.40
2022-12-11T04:17:37.553Z,1.37
2022-12-11T04:20:05.599Z,1.39
2022-12-11T04:22:32.090Z,1.40
2022-12-11T04:24:58.768Z,1.38
2022-12-11T04:27:25.579Z,1.36
2022-12-11T04:29:52.116Z,1.38
2022-12-11T04:32:18.493Z,1.37
2022-12-11T04:34:45.023Z,1.38
2022-12-11T04:37:11.338Z,1.33
2022-12-11T04:39:37.642Z,1.39
2022-12-11T04:42:04.246Z,1.35
2022-12-11T04:44:30.661Z,1.31
2022-12-11T04:46:57.071Z,1.31
2022-12-11T04:49:23.395Z,1.27
2022-12-11T04:51:49.746Z,1.26
2022-12-11T04:54:17.694Z,1.27
2022-12-11T04:56:43.998Z,1.23
2022-12-11T04:59:11.403Z,1.23
2022-12-11T05:01:37.744Z,1.26
2022-12-11T05:04:04.264Z,1.26
2022-12-11T05:06:30.626Z,1.24
2022-12-11T05:08:56.974Z,1.24
2022-12-11T05:11:23.604Z,1.23
2022-12-11T05:13:49.987Z,1.21
2022-12-11T05:16:17.252Z,1.22
2022-12-11T05:18:43.934Z,1.21
2022-12-11T05:21:12.730Z,1.24
2022-12-11T05:23:39.781Z,1.27
2022-12-11T05:26:13.076Z,1.27
2022-12-11T05:28:40.235Z,1.27
2022-12-11T05:31:12.589Z,1.23
2022-12-11T05:33:41.417Z,1.24
2022-12-11T05:36:08.598Z,1.23
2022-12-11T05:38:35.487Z,1.18
2022-12-11T05:41:05.606Z,1.18
2022-12-11T05:43:34.224Z,1.15
2022-12-11T05:46:11.005Z,1.20
2022-12-11T05:48:37.932Z,1.17
2022-12-11T05:51:05.802Z,1.17
2022-12-11T05:53:32.810Z,1.15
2022-12-11T05:56:08.231Z,1.17
2022-12-11T05:58:35.356Z,1.17
2022-12-11T06:01:08.628Z,1.18
2022-12-11T06:03:35.349Z,1.16
2022-12-11T06:06:02.814Z,1.20
2022-12-11T06:08:29.773Z,1.14
2022-12-11T06:10:56.276Z,1.15
2022-12-11T06:13:23.001Z,1.04
2022-12-11T06:15:49.920Z,0.47
2022-12-11T06:18:16.397Z,1.12
2022-12-11T06:20:43.091Z,0.70
2022-12-11T06:23:10.857Z,0.77
2022-12-11T06:25:40.567Z,0.89
2022-12-11T06:28:14.807Z,0.76
2022-12-11T06:30:43.715Z,1.16
2022-12-11T06:33:10.334Z,0.74
2022-12-11T06:35:42.075Z,0.62
2022-12-11T06:38:09.977Z,1.02
2022-12-11T06:40:36.330Z,0.91
2022-12-11T06:43:02.806Z,1.03
2022-12-11T06:45:29.364Z,1.09
2022-12-11T06:48:00.448Z,0.97
2022-12-11T06:50:26.935Z,1.16
2022-12-11T06:52:56.503Z,0.19
2022-12-11T06:55:23.289Z,0.34
2022-12-11T06:57:49.892Z,0.51
2022-12-11T07:00:16.754Z,0.53
2022-12-11T07:02:44.401Z,0.77
2022-12-11T07:05:11.477Z,0.49
2022-12-11T07:07:39.471Z,0.18
2022-12-11T07:10:08.527Z,0.56
2022-12-11T07:12:35.924Z,1.10
2022-12-11T07:15:06.897Z,0.78
2022-12-11T07:17:34.493Z,0.55
2022-12-11T07:20:01.221Z,0.90
2022-12-11T07:22:29.223Z,0.67
2022-12-11T07:24:56.087Z,0.89
2022-12-11T07:27:23.416Z,0.11
2022-12-11T07:29:51.484Z,0.68
2022-12-11T07:32:19.640Z,0.23
2022-12-11T07:34:51.558Z,0.60
2022-12-11T07:37:18.847Z,0.67
2022-12-11T07:39:46.536Z,1.00
2022-12-11T07:42:13.513Z,0.47
2022-12-11T07:44:40.394Z,0.60
2022-12-11T07:47:07.061Z,1.07
2022-12-11T07:49:34.848Z,0.61
2022-12-11T07:52:01.387Z,0.41
2022-12-11T07:54:27.876Z,1.06
2022-12-11T07:56:54.665Z,0.29
2022-12-11T07:59:21.376Z,0.33
2022-12-11T08:01:48.209Z,1.02
2022-12-11T08:04:15.181Z,0.52
2022-12-11T08:06:43.937Z,-0.12
2022-12-11T08:09:20.408Z,-0.10
2022-12-11T08:11:52.106Z,-0.07
2022-12-11T08:14:19.540Z,-0.20
2022-12-11T08:16:49.552Z,0.51
2022-12-11T08:19:16.757Z,0.73
2022-12-11T08:24:26.217Z,0.77
2022-12-11T08:26:52.853Z,0.81
2022-12-11T08:29:19.575Z,0.89
2022-12-11T08:31:46.376Z,0.85
2022-12-11T08:34:12.955Z,0.87
2022-12-11T08:36:40.066Z,0.47
2022-12-11T08:39:07.560Z,0.72
2022-12-11T08:41:34.252Z,0.09
2022-12-11T08:44:00.735Z,0.21
2022-12-11T08:49:11.887Z,0.57
2022-12-11T08:51:38.981Z,0.40
2022-12-11T08:54:06.121Z,0.26
2022-12-11T08:56:33.221Z,0.84
2022-12-11T08:59:03.601Z,0.45
2022-12-11T09:01:30.926Z,0.13
2022-12-11T09:03:59.477Z,0.41
2022-12-11T09:06:28.843Z,0.08
2022-12-11T09:11:41.617Z,1.03
2022-12-11T09:14:08.404Z,1.04
2022-12-11T09:16:36.637Z,1.19
2022-12-11T09:19:03.674Z,1.21
2022-12-11T09:21:30.292Z,1.20
2022-12-11T09:23:59.420Z,1.23
2022-12-11T09:26:28.509Z,1.23
2022-12-11T09:28:55.203Z,1.25
2022-12-11T09:31:21.576Z,1.34
2022-12-11T09:33:47.923Z,1.26
2022-12-11T09:36:14.269Z,1.23
2022-12-11T09:38:41.405Z,1.19
2022-12-11T09:41:29.415Z,1.32
2022-12-11T09:44:01.861Z,1.23
2022-12-11T09:46:33.796Z,1.19
2022-12-11T09:49:03.416Z,1.26
2022-12-11T09:52:03.719Z,1.29
2022-12-11T09:54:30.379Z,1.27
2022-12-11T09:57:17.124Z,1.25
2022-12-11T10:00:19.785Z,1.34
2022-12-11T10:02:55.234Z,1.39
2022-12-11T10:05:49.728Z,1.29
2022-12-11T10:08:30.520Z,1.24
2022-12-11T10:11:23.781Z,1.40
2022-12-11T10:14:06.009Z,1.37
2022-12-11T10:16:38.976Z,1.54
2022-12-11T10:19:06.057Z,1.48
2022-12-11T10:21:40.080Z,1.55
2022-12-11T10:25:07.496Z,1.40
2022-12-11T10:27:20.926Z,1.51
2022-12-11T10:29:52.954Z,1.47
2022-12-11T10:32:24.931Z,1.40
2022-12-11T10:35:01.715Z,1.47
2022-12-11T10:37:28.303Z,1.48
2022-12-11T10:39:54.744Z,1.45
2022-12-11T10:42:22.771Z,1.57
2022-12-11T10:45:04.404Z,1.46
2022-12-11T10:47:30.823Z,1.55
2022-12-11T10:50:02.012Z,1.62
2022-12-11T10:52:42.612Z,1.64
2022-12-11T10:55:30.366Z,1.70
2022-12-11T10:58:00.665Z,1.71
2022-12-11T11:00:38.296Z,1.71
2022-12-11T11:03:22.751Z,1.62
2022-12-11T11:05:49.735Z,1.66
2022-12-11T11:08:21.820Z,1.68
2022-12-11T11:10:52.512Z,1.73
2022-12-11T11:13:21.880Z,1.76
2022-12-11T11:15:49.274Z,1.83
2022-12-11T11:18:28.736Z,1.85
2022-12-11T11:20:55.516Z,2.06
2022-12-11T11:23:23.755Z,1.97
2022-12-11T11:25:56.030Z,2.00
2022-12-11T11:28:29.454Z,2.09
2022-12-11T11:31:08.794Z,2.07
2022-12-11T11:33:37.510Z,2.01
2022-12-11T11:36:07.537Z,2.00
2022-12-11T11:39:06.022Z,2.01
2022-12-11T11:42:01.770Z,1.97
2022-12-11T11:44:34.732Z,2.09
2022-12-11T11:47:10.856Z,2.03
2022-12-11T11:49:55.971Z,1.96
2022-12-11T11:52:40.443Z,1.99
2022-12-11T11:55:42.490Z,1.89
2022-12-11T11:58:19.883Z,1.90
2022-12-11T12:00:46.864Z,1.89
2022-12-11T12:03:16.882Z,1.92
2022-12-11T12:05:48.919Z,1.90
2022-12-11T12:09:06.479Z,1.84
2022-12-11T12:11:49.284Z,1.96
2022-12-11T12:17:31.032Z,1.88
2022-12-11T12:20:00.240Z,1.94
2022-12-11T12:22:52.347Z,2.03
2022-12-11T12:25:31.481Z,2.05
2022-12-11T12:28:12.557Z,1.96
2022-12-11T12:31:13.028Z,1.97
2022-12-11T12:34:02.531Z,2.02
2022-12-11T12:36:49.356Z,2.03
2022-12-11T12:39:24.209Z,2.04
2022-12-11T12:42:11.232Z,2.00
2022-12-11T12:45:01.817Z,2.00
2022-12-11T12:47:32.588Z,1.95
2022-12-11T12:50:01.126Z,1.95
2022-12-11T12:52:37.672Z,1.93
2022-12-11T12:55:13.460Z,1.90
2022-12-11T12:57:43.994Z,1.96
2022-12-11T13:00:13.486Z,1.97
2022-12-11T13:02:50.838Z,1.88
2022-12-11T13:05:24.802Z,1.94
2022-12-11T13:08:04.764Z,1.84
2022-12-11T13:10:38.672Z,1.89
2022-12-11T13:13:25.495Z,1.91
2022-12-11T13:15:51.901Z,1.87
2022-12-11T13:18:39.164Z,1.96
2022-12-11T13:21:29.874Z,1.96
2022-12-11T13:24:14.993Z,1.92
2022-12-11T13:26:42.302Z,1.95
2022-12-11T13:29:32.407Z,1.92
2022-12-11T13:32:04.928Z,1.86
2022-12-11T13:34:33.311Z,1.84
2022-12-11T13:37:01.423Z,1.79
2022-12-11T13:39:31.818Z,1.80
2022-12-11T13:42:02.484Z,1.85
2022-12-11T13:44:39.355Z,1.83
2022-12-11T13:47:10.582Z,1.88
2022-12-11T13:49:41.195Z,1.90
2022-12-11T13:52:15.817Z,1.81
2022-12-11T13:54:47.940Z,1.73
2022-12-11T13:57:20.324Z,1.76
2022-12-11T13:59:53.297Z,1.75
2022-12-11T14:02:35.230Z,1.79
2022-12-11T14:05:05.716Z,1.73
2022-12-11T14:07:36.029Z,1.75
2022-12-11T14:10:07.682Z,1.69
2022-12-11T14:12:34.352Z,1.70
2022-12-11T14:15:03.982Z,1.62
2022-12-11T14:17:32.806Z,1.67
2022-12-11T14:20:03.123Z,1.72
2022-12-11T14:22:30.723Z,1.66
2022-12-11T14:25:00.205Z,1.70
2022-12-11T14:27:27.693Z,1.66
2022-12-11T14:29:55.117Z,1.59
2022-12-11T14:32:31.534Z,1.65
2022-12-11T14:34:58.840Z,1.61
2022-12-11T14:37:26.195Z,1.62
2022-12-11T14:40:10.319Z,1.67
2022-12-11T14:42:43.693Z,1.66
2022-12-11T14:45:20.815Z,1.66
2022-12-11T14:47:47.523Z,1.72
2022-12-11T14:50:22.619Z,1.72
2022-12-11T14:52:54.203Z,1.68
2022-12-11T14:55:34.802Z,1.63
2022-12-11T14:58:17.629Z,1.65
2022-12-11T15:00:44.014Z,1.66
2022-12-11T15:03:10.340Z,1.68
2022-12-11T15:05:50.109Z,1.68
2022-12-11T15:08:25.665Z,1.67
2022-12-11T15:10:58.383Z,1.65
2022-12-11T15:13:25.301Z,1.67
2022-12-11T15:15:54.349Z,1.65
2022-12-11T15:18:24.382Z,1.58
2022-12-11T15:20:53.479Z,1.63
2022-12-11T15:23:20.068Z,1.66
2022-12-11T15:25:55.359Z,1.64
2022-12-11T15:28:34.795Z,1.67
2022-12-11T15:31:04.936Z,1.64
2022-12-11T15:33:34.531Z,1.58
2022-12-11T15:36:04.707Z,1.69
2022-12-11T15:38:40.236Z,1.67
2022-12-11T15:41:13.559Z,1.70
2022-12-11T15:43:40.379Z,1.67
2022-12-11T15:46:06.917Z,1.61
2022-12-11T15:48:33.772Z,1.60
2022-12-11T15:51:00.306Z,1.59
2022-12-11T15:53:26.657Z,1.61
2022-12-11T15:55:53.606Z,1.71
2022-12-11T15:58:22.338Z,1.67
2022-12-11T16:00:48.996Z,1.60
2022-12-11T16:03:17.673Z,1.58
2022-12-11T16:05:45.434Z,1.60
2022-12-11T16:08:17.284Z,1.59
2022-12-11T16:10:44.869Z,1.60
2022-12-11T16:13:12.243Z,1.63
2022-12-11T16:15:41.108Z,1.69
2022-12-11T16:18:12.858Z,1.67
2022-12-11T16:20:40.383Z,1.67
2022-12-11T16:23:08.249Z,1.64
2022-12-11T16:25:37.844Z,1.59
2022-12-11T16:28:05.015Z,1.56
2022-12-11T16:30:31.575Z,1.61
2022-12-11T16:32:57.967Z,1.63
2022-12-11T16:35:24.284Z,1.58
2022-12-11T16:37:54.140Z,1.61
2022-12-11T16:40:21.234Z,1.58
2022-12-11T16:42:48.172Z,1.56
2022-12-11T16:45:23.101Z,1.60
2022-12-11T16:47:49.564Z,1.58
2022-12-11T16:50:17.158Z,1.54
2022-12-11T16:52:45.482Z,1.58
2022-12-11T16:55:13.100Z,1.56
2022-12-11T16:57:39.939Z,1.50
2022-12-11T17:00:08.551Z,1.55
2022-12-11T17:02:35.912Z,1.55
2022-12-11T17:05:02.550Z,1.55
2022-12-11T17:07:29.189Z,1.55
2022-12-11T17:09:55.563Z,1.55
2022-12-11T17:12:22.085Z,1.48
2022-12-11T17:14:48.522Z,1.53
2022-12-11T17:17:14.823Z,1.49
2022-12-11T17:19:41.403Z,1.47
2022-12-11T17:22:07.750Z,1.45
2022-12-11T17:24:34.091Z,1.43
2022-12-11T17:27:00.423Z,1.41
2022-12-11T17:29:29.229Z,1.44
2022-12-11T17:31:55.639Z,1.46
2022-12-11T17:34:21.974Z,1.44
2022-12-11T17:36:48.289Z,1.44
2022-12-11T17:39:14.919Z,1.34
2022-12-11T17:41:41.293Z,1.44
2022-12-11T17:44:07.660Z,1.43
2022-12-11T17:46:34.315Z,1.36
2022-12-11T17:49:03.115Z,1.43
2022-12-11T17:51:29.566Z,1.46
2022-12-11T17:53:56.088Z,1.46
2022-12-11T17:56:23.214Z,1.46
2022-12-11T17:58:49.788Z,1.43
2022-12-11T18:01:16.338Z,1.43
2022-12-11T18:03:42.769Z,1.46
2022-12-11T18:06:13.129Z,1.47
2022-12-11T18:08:39.788Z,1.46
2022-12-11T18:11:13.130Z,1.41
2022-12-11T18:13:40.116Z,1.43
2022-12-11T18:16:12.227Z,1.49
2022-12-11T18:18:39.525Z,1.37
2022-12-11T18:21:06.134Z,1.41
2022-12-11T18:23:33.145Z,1.39
2022-12-11T18:25:59.653Z,1.39
2022-12-11T18:28:26.120Z,1.29
2022-12-11T18:30:52.501Z,1.31
2022-12-11T18:33:18.892Z,1.36
2022-12-11T18:35:45.421Z,1.29
2022-12-11T18:38:12.277Z,1.30
2022-12-11T18:40:38.743Z,1.24
2022-12-11T18:43:05.133Z,1.31
2022-12-11T18:45:34.715Z,1.18
2022-12-11T18:48:01.495Z,1.14
2022-12-11T18:50:27.832Z,1.17
2022-12-11T18:52:55.573Z,1.18
2022-12-11T18:55:22.069Z,1.22
2022-12-11T18:57:48.675Z,1.18
2022-12-11T19:00:15.695Z,1.21
2022-12-11T19:02:42.706Z,1.19
2022-12-11T19:05:10.472Z,1.15
2022-12-11T19:07:38.029Z,1.14
2022-12-11T19:10:04.962Z,1.09
2022-12-11T19:12:31.293Z,1.07
2022-12-11T19:14:59.063Z,1.11
2022-12-11T19:17:25.587Z,1.10
2022-12-11T19:19:51.938Z,1.08
2022-12-11T19:22:18.244Z,1.03
2022-12-11T19:24:44.589Z,1.08
2022-12-11T19:27:13.732Z,1.07
2022-12-11T19:29:40.407Z,1.10
2022-12-11T19:32:07.330Z,1.03
2022-12-11T19:34:33.854Z,1.08
2022-12-11T19:37:00.218Z,1.07
2022-12-11T19:39:26.886Z,1.08
2022-12-11T19:41:53.233Z,1.06
2022-12-11T19:44:20.540Z,1.08
2022-12-11T19:46:47.165Z,1.07
2022-12-11T19:49:13.734Z,1.04
2022-12-11T19:51:45.095Z,1.01
2022-12-11T19:54:14.754Z,1.02
2022-12-11T19:56:41.271Z,1.01
2022-12-11T19:59:09.668Z,1.07
2022-12-11T20:01:37.637Z,1.13
2022-12-11T20:04:08.123Z,1.13
2022-12-11T20:06:37.546Z,1.09
2022-12-11T20:09:06.415Z,1.09
2022-12-11T20:11:33.428Z,1.08
2022-12-11T20:13:59.997Z,1.11
2022-12-11T20:16:46.164Z,1.11
2022-12-11T20:19:12.889Z,1.12
2022-12-11T20:21:40.597Z,1.12
2022-12-11T20:24:09.087Z,1.07
2022-12-11T20:26:35.769Z,1.05
2022-12-11T20:29:03.697Z,1.07
2022-12-11T20:31:30.147Z,1.09
2022-12-11T20:33:57.092Z,1.07
2022-12-11T20:36:24.718Z,1.06
2022-12-11T20:38:51.635Z,1.03
2022-12-11T20:41:23.500Z,1.10
2022-12-11T20:43:50.814Z,1.11
2022-12-11T20:46:17.914Z,1.13
2022-12-11T20:48:45.073Z,1.11
2022-12-11T20:51:13.494Z,1.11
2022-12-11T20:53:40.797Z,1.14
2022-12-11T20:56:16.663Z,1.10
2022-12-11T20:58:43.832Z,1.06
2022-12-11T21:01:19.905Z,1.04
2022-12-11T21:03:47.358Z,1.06
2022-12-11T21:06:21.188Z,1.01
2022-12-11T21:08:47.763Z,1.04
2022-12-11T21:11:14.255Z,1.09
2022-12-11T21:13:40.733Z,1.00
2022-12-11T21:16:09.340Z,1.05
2022-12-11T21:18:35.722Z,1.01
2022-12-11T21:21:02.262Z,1.02
2022-12-11T21:23:28.776Z,1.06
2022-12-11T21:25:55.305Z,1.06
2022-12-11T21:28:21.835Z,1.07
2022-12-11T21:30:48.249Z,1.10
2022-12-11T21:33:14.830Z,1.11
2022-12-11T21:35:41.284Z,1.11
2022-12-11T21:38:07.870Z,1.13
2022-12-11T21:40:34.373Z,1.11
2022-12-11T21:43:00.693Z,1.14
2022-12-11T21:48:13.822Z,1.05
2022-12-11T21:50:40.877Z,0.95
2022-12-11T21:53:07.276Z,0.88
2022-12-11T21:55:33.583Z,0.86
2022-12-11T21:58:00.088Z,0.88
2022-12-11T22:00:26.648Z,0.84
2022-12-11T22:02:52.991Z,0.85
2022-12-11T22:05:19.551Z,0.85
2022-12-11T22:07:45.996Z,0.82
2022-12-11T22:10:12.442Z,0.87
2022-12-11T22:12:38.783Z,0.85
2022-12-11T22:15:05.879Z,0.82
2022-12-11T22:17:32.215Z,0.78
2022-12-11T22:19:58.527Z,0.79
2022-12-11T22:22:25.102Z,0.79
2022-12-11T22:24:52.872Z,0.78
2022-12-11T22:27:23.720Z,0.78
2022-12-11T22:29:50.473Z,0.79
2022-12-11T22:32:17.014Z,0.77
2022-12-11T22:34:43.475Z,0.78
2022-12-11T22:37:09.864Z,0.78
2022-12-11T22:39:36.163Z,0.79
2022-12-11T22:42:02.693Z,0.80
2022-12-11T22:44:29.005Z,0.77
2022-12-11T22:46:55.356Z,0.73
2022-12-11T22:49:21.682Z,0.78
2022-12-11T22:51:48.468Z,0.78
2022-12-11T22:54:14.863Z,0.77
2022-12-11T22:56:41.454Z,0.74
2022-12-11T22:59:07.807Z,0.76
2022-12-11T23:01:34.351Z,0.73
2022-12-11T23:04:00.705Z,0.72
2022-12-11T23:06:27.121Z,0.74
2022-12-11T23:08:57.565Z,0.79
2022-12-11T23:11:30.827Z,0.78
2022-12-11T23:13:57.508Z,0.77
2022-12-11T23:16:25.925Z,0.79
2022-12-11T23:18:53.584Z,0.77
2022-12-11T23:21:20.384Z,0.77
2022-12-11T23:23:46.710Z,0.72
2022-12-11T23:26:14.213Z,0.74
2022-12-11T23:28:40.997Z,0.74
2022-12-11T23:31:08.395Z,0.74
2022-12-11T23:33:34.811Z,0.76
2022-12-11T23:36:01.140Z,0.77
2022-12-11T23:38:27.728Z,0.74
2022-12-11T23:40:54.404Z,0.75
2022-12-11T23:43:20.863Z,0.71
2022-12-11T23:45:47.259Z,0.72
2022-12-11T23:48:14.160Z,0.68
2022-12-11T23:50:41.887Z,0.73
2022-12-11T23:53:08.544Z,0.76
2022-12-11T23:55:35.430Z,0.78
2022-12-11T23:58:01.771Z,0.75
